sensor_id;sensor_type;location;lat;lon;timestamp;temperature;humidity
9925;DHT22;5001;51.674;7.868;2023-04-24T00:01:49;12.00;1.00
9925;DHT22;5001;51.674;7.868;2023-04-24T00:04:17;12.00;1.00
9925;DHT22;5001;51.674;7.868;2023-04-24T00:06:44;12.00;1.00
9925;DHT22;5001;51.674;7.868;2023-04-24T00:09:11;12.00;1.00
9925;DHT22;5001;51.674;7.868;2023-04-24T00:11:38;11.90;1.00
9925;DHT22;5001;51.674;7.868;2023-04-24T00:14:05;11.80;1.00
9925;DHT22;5001;51.674;7.868;2023-04-24T00:16:32;11.80;1.00
9925;DHT22;5001;51.674;7.868;2023-04-24T00:18:59;11.70;1.00
9925;DHT22;5001;51.674;7.868;2023-04-24T00:21:27;11.70;1.00
9925;DHT22;5001;51.674;7.868;2023-04-24T00:23:54;11.80;1.00
9925;DHT22;5001;51.674;7.868;2023-04-24T00:26:21;11.80;1.00
9925;DHT22;5001;51.674;7.868;2023-04-24T00:28:49;11.80;1.00
9925;DHT22;5001;51.674;7.868;2023-04-24T00:31:16;11.80;1.00
9925;DHT22;5001;51.674;7.868;2023-04-24T00:33:43;11.80;1.00
9925;DHT22;5001;51.674;7.868;2023-04-24T00:36:10;11.80;1.00
9925;DHT22;5001;51.674;7.868;2023-04-24T00:38:37;11.80;1.00
9925;DHT22;5001;51.674;7.868;2023-04-24T00:41:04;11.80;1.00
9925;DHT22;5001;51.674;7.868;2023-04-24T00:43:31;11.80;1.00
9925;DHT22;5001;51.674;7.868;2023-04-24T00:45:58;11.80;1.00
9925;DHT22;5001;51.674;7.868;2023-04-24T00:48:28;11.70;1.00
9925;DHT22;5001;51.674;7.868;2023-04-24T00:50:55;11.70;1.00
9925;DHT22;5001;51.674;7.868;2023-04-24T00:53:22;11.60;1.00
9925;DHT22;5001;51.674;7.868;2023-04-24T00:55:49;11.60;1.00
9925;DHT22;5001;51.674;7.868;2023-04-24T00:58:16;11.60;1.00
9925;DHT22;5001;51.674;7.868;2023-04-24T01:00:44;11.40;1.00
9925;DHT22;5001;51.674;7.868;2023-04-24T01:03:12;11.40;1.00
9925;DHT22;5001;51.674;7.868;2023-04-24T01:05:40;11.40;1.00
9925;DHT22;5001;51.674;7.868;2023-04-24T01:08:07;11.40;1.00
9925;DHT22;5001;51.674;7.868;2023-04-24T01:10:36;11.40;1.00
9925;DHT22;5001;51.674;7.868;2023-04-24T01:13:05;11.40;1.00
9925;DHT22;5001;51.674;7.868;2023-04-24T01:15:32;11.40;1.00
9925;DHT22;5001;51.674;7.868;2023-04-24T01:17:59;11.20;1.00
9925;DHT22;5001;51.674;7.868;2023-04-24T01:20:26;11.10;1.00
9925;DHT22;5001;51.674;7.868;2023-04-24T01:22:54;11.00;1.00
9925;DHT22;5001;51.674;7.868;2023-04-24T01:25:24;11.00;1.00
9925;DHT22;5001;51.674;7.868;2023-04-24T01:27:52;10.90;1.00
9925;DHT22;5001;51.674;7.868;2023-04-24T01:30:19;11.00;1.00
9925;DHT22;5001;51.674;7.868;2023-04-24T01:32:46;11.00;1.00
9925;DHT22;5001;51.674;7.868;2023-04-24T01:35:14;11.00;1.00
9925;DHT22;5001;51.674;7.868;2023-04-24T01:37:41;10.90;1.00
9925;DHT22;5001;51.674;7.868;2023-04-24T01:40:08;10.90;1.00
9925;DHT22;5001;51.674;7.868;2023-04-24T01:42:36;10.80;1.00
9925;DHT22;5001;51.674;7.868;2023-04-24T01:45:04;10.80;1.00
9925;DHT22;5001;51.674;7.868;2023-04-24T01:47:32;10.80;1.00
9925;DHT22;5001;51.674;7.868;2023-04-24T01:49:59;10.90;1.00
9925;DHT22;5001;51.674;7.868;2023-04-24T01:52:26;10.90;1.00
9925;DHT22;5001;51.674;7.868;2023-04-24T01:54:53;10.80;1.00
9925;DHT22;5001;51.674;7.868;2023-04-24T01:57:22;11.00;1.00
9925;DHT22;5001;51.674;7.868;2023-04-24T01:59:50;11.00;1.00
9925;DHT22;5001;51.674;7.868;2023-04-24T02:02:17;11.00;1.00
9925;DHT22;5001;51.674;7.868;2023-04-24T02:04:45;11.00;1.00
9925;DHT22;5001;51.674;7.868;2023-04-24T02:07:12;11.00;1.00
9925;DHT22;5001;51.674;7.868;2023-04-24T02:09:39;11.00;1.00
9925;DHT22;5001;51.674;7.868;2023-04-24T02:12:06;11.00;1.00
9925;DHT22;5001;51.674;7.868;2023-04-24T02:14:33;11.00;1.00
9925;DHT22;5001;51.674;7.868;2023-04-24T02:17:00;11.00;1.00
9925;DHT22;5001;51.674;7.868;2023-04-24T02:19:27;11.10;1.00
9925;DHT22;5001;51.674;7.868;2023-04-24T02:21:55;11.10;1.00
9925;DHT22;5001;51.674;7.868;2023-04-24T02:24:22;11.20;1.00
9925;DHT22;5001;51.674;7.868;2023-04-24T02:26:49;11.30;1.00
9925;DHT22;5001;51.674;7.868;2023-04-24T02:29:16;11.20;1.00
9925;DHT22;5001;51.674;7.868;2023-04-24T02:31:42;11.20;1.00
9925;DHT22;5001;51.674;7.868;2023-04-24T02:34:10;11.20;1.00
9925;DHT22;5001;51.674;7.868;2023-04-24T02:36:37;11.20;1.00
9925;DHT22;5001;51.674;7.868;2023-04-24T02:39:04;11.20;1.00
9925;DHT22;5001;51.674;7.868;2023-04-24T02:41:31;11.20;1.00
9925;DHT22;5001;51.674;7.868;2023-04-24T02:43:59;11.20;1.00
9925;DHT22;5001;51.674;7.868;2023-04-24T02:46:26;11.20;1.00
9925;DHT22;5001;51.674;7.868;2023-04-24T02:48:53;11.30;1.00
9925;DHT22;5001;51.674;7.868;2023-04-24T02:51:20;11.30;1.00
9925;DHT22;5001;51.674;7.868;2023-04-24T02:53:47;11.30;1.00
9925;DHT22;5001;51.674;7.868;2023-04-24T02:56:14;11.40;1.00
9925;DHT22;5001;51.674;7.868;2023-04-24T02:58:41;11.40;1.00
9925;DHT22;5001;51.674;7.868;2023-04-24T03:01:09;11.30;1.00
9925;DHT22;5001;51.674;7.868;2023-04-24T03:03:38;11.40;1.00
9925;DHT22;5001;51.674;7.868;2023-04-24T03:06:06;11.40;1.00
9925;DHT22;5001;51.674;7.868;2023-04-24T03:08:35;11.40;1.00
9925;DHT22;5001;51.674;7.868;2023-04-24T03:11:03;11.30;1.00
9925;DHT22;5001;51.674;7.868;2023-04-24T03:13:30;11.30;1.00
9925;DHT22;5001;51.674;7.868;2023-04-24T03:15:57;11.20;1.00
9925;DHT22;5001;51.674;7.868;2023-04-24T03:18:24;11.20;1.00
9925;DHT22;5001;51.674;7.868;2023-04-24T03:20:52;11.20;1.00
9925;DHT22;5001;51.674;7.868;2023-04-24T03:23:19;11.10;1.00
9925;DHT22;5001;51.674;7.868;2023-04-24T03:25:46;11.00;1.00
9925;DHT22;5001;51.674;7.868;2023-04-24T03:28:15;10.90;1.00
9925;DHT22;5001;51.674;7.868;2023-04-24T03:30:47;11.10;1.00
9925;DHT22;5001;51.674;7.868;2023-04-24T03:33:16;11.00;1.00
9925;DHT22;5001;51.674;7.868;2023-04-24T03:35:53;10.80;1.00
9925;DHT22;5001;51.674;7.868;2023-04-24T03:38:21;10.70;1.00
9925;DHT22;5001;51.674;7.868;2023-04-24T03:40:58;10.60;1.00
9925;DHT22;5001;51.674;7.868;2023-04-24T03:43:35;10.60;1.00
9925;DHT22;5001;51.674;7.868;2023-04-24T03:46:03;10.70;1.00
9925;DHT22;5001;51.674;7.868;2023-04-24T03:48:33;10.80;1.00
9925;DHT22;5001;51.674;7.868;2023-04-24T03:51:01;11.00;1.00
9925;DHT22;5001;51.674;7.868;2023-04-24T03:53:29;10.80;1.00
9925;DHT22;5001;51.674;7.868;2023-04-24T03:55:56;10.70;1.00
9925;DHT22;5001;51.674;7.868;2023-04-24T03:58:24;10.80;1.00
9925;DHT22;5001;51.674;7.868;2023-04-24T04:00:55;10.90;1.00
9925;DHT22;5001;51.674;7.868;2023-04-24T04:03:56;10.90;1.00
9925;DHT22;5001;51.674;7.868;2023-04-24T04:06:26;10.70;1.00
9925;DHT22;5001;51.674;7.868;2023-04-24T04:08:54;10.60;1.00
9925;DHT22;5001;51.674;7.868;2023-04-24T04:11:21;10.60;1.00
9925;DHT22;5001;51.674;7.868;2023-04-24T04:13:50;10.50;1.00
9925;DHT22;5001;51.674;7.868;2023-04-24T04:16:20;10.40;1.00
9925;DHT22;5001;51.674;7.868;2023-04-24T04:18:49;10.20;1.00
9925;DHT22;5001;51.674;7.868;2023-04-24T04:21:16;10.10;1.00
9925;DHT22;5001;51.674;7.868;2023-04-24T04:23:44;10.20;1.00
9925;DHT22;5001;51.674;7.868;2023-04-24T04:26:16;10.10;1.00
9925;DHT22;5001;51.674;7.868;2023-04-24T04:29:02;10.10;1.00
9925;DHT22;5001;51.674;7.868;2023-04-24T04:31:32;10.00;1.00
9925;DHT22;5001;51.674;7.868;2023-04-24T04:34:03;10.10;1.00
9925;DHT22;5001;51.674;7.868;2023-04-24T04:36:32;10.20;1.00
9925;DHT22;5001;51.674;7.868;2023-04-24T04:39:16;10.20;1.00
9925;DHT22;5001;51.674;7.868;2023-04-24T04:41:54;10.30;1.00
9925;DHT22;5001;51.674;7.868;2023-04-24T04:44:26;10.50;1.00
9925;DHT22;5001;51.674;7.868;2023-04-24T04:46:57;10.50;1.00
9925;DHT22;5001;51.674;7.868;2023-04-24T04:49:28;10.50;1.00
9925;DHT22;5001;51.674;7.868;2023-04-24T04:51:56;10.50;1.00
9925;DHT22;5001;51.674;7.868;2023-04-24T04:54:25;10.50;1.00
9925;DHT22;5001;51.674;7.868;2023-04-24T04:56:52;10.60;1.00
9925;DHT22;5001;51.674;7.868;2023-04-24T04:59:20;10.60;1.00
9925;DHT22;5001;51.674;7.868;2023-04-24T05:01:51;10.60;1.00
9925;DHT22;5001;51.674;7.868;2023-04-24T05:04:18;10.60;1.00
9925;DHT22;5001;51.674;7.868;2023-04-24T05:06:46;10.70;1.00
9925;DHT22;5001;51.674;7.868;2023-04-24T05:09:14;10.70;1.00
9925;DHT22;5001;51.674;7.868;2023-04-24T05:11:50;10.60;1.00
9925;DHT22;5001;51.674;7.868;2023-04-24T05:14:17;10.60;1.00
9925;DHT22;5001;51.674;7.868;2023-04-24T05:16:45;10.60;1.00
9925;DHT22;5001;51.674;7.868;2023-04-24T05:19:14;10.60;1.00
9925;DHT22;5001;51.674;7.868;2023-04-24T05:21:41;10.60;1.00
9925;DHT22;5001;51.674;7.868;2023-04-24T05:24:09;10.60;1.00
9925;DHT22;5001;51.674;7.868;2023-04-24T05:27:03;10.80;1.00
9925;DHT22;5001;51.674;7.868;2023-04-24T05:29:38;10.80;1.00
9925;DHT22;5001;51.674;7.868;2023-04-24T05:32:07;10.70;1.00
9925;DHT22;5001;51.674;7.868;2023-04-24T05:34:34;10.70;1.00
9925;DHT22;5001;51.674;7.868;2023-04-24T05:37:02;10.70;1.00
9925;DHT22;5001;51.674;7.868;2023-04-24T05:39:29;10.70;1.00
9925;DHT22;5001;51.674;7.868;2023-04-24T05:41:56;10.70;1.00
9925;DHT22;5001;51.674;7.868;2023-04-24T05:44:24;10.70;1.00
9925;DHT22;5001;51.674;7.868;2023-04-24T05:46:52;10.70;1.00
9925;DHT22;5001;51.674;7.868;2023-04-24T05:49:19;10.70;1.00
9925;DHT22;5001;51.674;7.868;2023-04-24T05:51:46;10.60;1.00
9925;DHT22;5001;51.674;7.868;2023-04-24T05:54:15;10.60;1.00
9925;DHT22;5001;51.674;7.868;2023-04-24T05:56:42;10.70;1.00
9925;DHT22;5001;51.674;7.868;2023-04-24T05:59:12;10.70;1.00
9925;DHT22;5001;51.674;7.868;2023-04-24T06:01:40;10.80;1.00
9925;DHT22;5001;51.674;7.868;2023-04-24T06:04:14;10.90;1.00
9925;DHT22;5001;51.674;7.868;2023-04-24T06:06:42;11.00;1.00
9925;DHT22;5001;51.674;7.868;2023-04-24T06:09:09;10.90;1.00
9925;DHT22;5001;51.674;7.868;2023-04-24T06:11:36;10.90;1.00
9925;DHT22;5001;51.674;7.868;2023-04-24T06:14:05;11.30;1.00
9925;DHT22;5001;51.674;7.868;2023-04-24T06:16:37;11.10;1.00
9925;DHT22;5001;51.674;7.868;2023-04-24T06:19:16;10.90;1.00
9925;DHT22;5001;51.674;7.868;2023-04-24T06:21:43;10.80;1.00
9925;DHT22;5001;51.674;7.868;2023-04-24T06:24:10;10.80;1.00
9925;DHT22;5001;51.674;7.868;2023-04-24T06:26:37;10.80;1.00
9925;DHT22;5001;51.674;7.868;2023-04-24T06:29:06;10.90;1.00
9925;DHT22;5001;51.674;7.868;2023-04-24T06:31:35;11.10;1.00
9925;DHT22;5001;51.674;7.868;2023-04-24T06:34:04;11.10;1.00
9925;DHT22;5001;51.674;7.868;2023-04-24T06:36:31;10.90;1.00
9925;DHT22;5001;51.674;7.868;2023-04-24T06:38:59;11.00;1.00
9925;DHT22;5001;51.674;7.868;2023-04-24T06:41:26;10.70;1.00
9925;DHT22;5001;51.674;7.868;2023-04-24T06:43:53;10.50;1.00
9925;DHT22;5001;51.674;7.868;2023-04-24T06:46:20;10.70;1.00
9925;DHT22;5001;51.674;7.868;2023-04-24T06:48:50;10.60;1.00
9925;DHT22;5001;51.674;7.868;2023-04-24T06:51:17;10.70;1.00
9925;DHT22;5001;51.674;7.868;2023-04-24T06:53:44;10.50;1.00
9925;DHT22;5001;51.674;7.868;2023-04-24T06:56:14;10.50;1.00
9925;DHT22;5001;51.674;7.868;2023-04-24T06:58:42;10.50;1.00
9925;DHT22;5001;51.674;7.868;2023-04-24T07:01:10;10.60;1.00
9925;DHT22;5001;51.674;7.868;2023-04-24T07:03:37;10.70;1.00
9925;DHT22;5001;51.674;7.868;2023-04-24T07:06:05;10.50;1.00
9925;DHT22;5001;51.674;7.868;2023-04-24T07:08:32;10.50;1.00
9925;DHT22;5001;51.674;7.868;2023-04-24T07:11:00;10.90;1.00
9925;DHT22;5001;51.674;7.868;2023-04-24T07:13:27;11.20;1.00
9925;DHT22;5001;51.674;7.868;2023-04-24T07:15:54;11.10;1.00
9925;DHT22;5001;51.674;7.868;2023-04-24T07:18:23;11.00;1.00
9925;DHT22;5001;51.674;7.868;2023-04-24T07:20:50;11.00;1.00
9925;DHT22;5001;51.674;7.868;2023-04-24T07:23:18;10.90;1.00
9925;DHT22;5001;51.674;7.868;2023-04-24T07:25:45;10.70;1.00
9925;DHT22;5001;51.674;7.868;2023-04-24T07:28:13;10.90;1.00
9925;DHT22;5001;51.674;7.868;2023-04-24T07:30:40;10.90;1.00
9925;DHT22;5001;51.674;7.868;2023-04-24T07:33:07;10.80;1.00
9925;DHT22;5001;51.674;7.868;2023-04-24T07:35:34;11.00;1.00
9925;DHT22;5001;51.674;7.868;2023-04-24T07:38:02;10.80;1.00
9925;DHT22;5001;51.674;7.868;2023-04-24T07:40:29;10.80;1.00
9925;DHT22;5001;51.674;7.868;2023-04-24T07:42:56;11.20;1.00
9925;DHT22;5001;51.674;7.868;2023-04-24T07:45:23;11.40;1.00
9925;DHT22;5001;51.674;7.868;2023-04-24T07:47:52;11.30;1.00
9925;DHT22;5001;51.674;7.868;2023-04-24T07:50:19;11.40;1.00
9925;DHT22;5001;51.674;7.868;2023-04-24T07:52:47;11.20;1.00
9925;DHT22;5001;51.674;7.868;2023-04-24T07:55:14;10.90;1.00
9925;DHT22;5001;51.674;7.868;2023-04-24T07:57:41;10.80;1.00
9925;DHT22;5001;51.674;7.868;2023-04-24T08:00:08;10.80;1.00
9925;DHT22;5001;51.674;7.868;2023-04-24T08:02:39;11.20;1.00
9925;DHT22;5001;51.674;7.868;2023-04-24T08:05:06;11.00;1.00
9925;DHT22;5001;51.674;7.868;2023-04-24T08:07:34;10.80;1.00
9925;DHT22;5001;51.674;7.868;2023-04-24T08:10:02;10.70;1.00
9925;DHT22;5001;51.674;7.868;2023-04-24T08:12:29;10.80;1.00
9925;DHT22;5001;51.674;7.868;2023-04-24T08:14:56;10.80;1.00
9925;DHT22;5001;51.674;7.868;2023-04-24T08:17:23;10.80;1.00
9925;DHT22;5001;51.674;7.868;2023-04-24T08:19:51;10.60;1.00
9925;DHT22;5001;51.674;7.868;2023-04-24T08:22:19;10.40;1.00
9925;DHT22;5001;51.674;7.868;2023-04-24T08:24:46;10.30;1.00
9925;DHT22;5001;51.674;7.868;2023-04-24T08:27:13;10.20;1.00
9925;DHT22;5001;51.674;7.868;2023-04-24T08:29:41;10.30;1.00
9925;DHT22;5001;51.674;7.868;2023-04-24T08:32:08;10.30;1.00
9925;DHT22;5001;51.674;7.868;2023-04-24T08:34:35;10.50;1.00
9925;DHT22;5001;51.674;7.868;2023-04-24T08:37:02;10.70;1.00
9925;DHT22;5001;51.674;7.868;2023-04-24T08:39:29;10.70;1.00
9925;DHT22;5001;51.674;7.868;2023-04-24T08:41:57;10.60;1.00
9925;DHT22;5001;51.674;7.868;2023-04-24T08:44:32;11.00;1.00
9925;DHT22;5001;51.674;7.868;2023-04-24T08:47:01;11.50;1.00
9925;DHT22;5001;51.674;7.868;2023-04-24T08:49:29;11.90;1.00
9925;DHT22;5001;51.674;7.868;2023-04-24T08:51:56;11.80;1.00
9925;DHT22;5001;51.674;7.868;2023-04-24T08:54:25;11.30;1.00
9925;DHT22;5001;51.674;7.868;2023-04-24T08:56:53;10.70;1.00
9925;DHT22;5001;51.674;7.868;2023-04-24T08:59:23;10.50;1.00
9925;DHT22;5001;51.674;7.868;2023-04-24T09:01:51;10.50;1.00
9925;DHT22;5001;51.674;7.868;2023-04-24T09:04:20;10.30;1.00
9925;DHT22;5001;51.674;7.868;2023-04-24T09:06:49;9.90;1.00
9925;DHT22;5001;51.674;7.868;2023-04-24T09:09:19;9.60;1.00
9925;DHT22;5001;51.674;7.868;2023-04-24T09:11:46;9.60;1.00
9925;DHT22;5001;51.674;7.868;2023-04-24T09:14:15;9.70;1.00
9925;DHT22;5001;51.674;7.868;2023-04-24T09:16:43;10.10;1.00
9925;DHT22;5001;51.674;7.868;2023-04-24T09:19:10;10.10;1.00
9925;DHT22;5001;51.674;7.868;2023-04-24T09:21:37;10.10;1.00
9925;DHT22;5001;51.674;7.868;2023-04-24T09:24:07;10.50;1.00
9925;DHT22;5001;51.674;7.868;2023-04-24T09:26:36;10.50;1.00
9925;DHT22;5001;51.674;7.868;2023-04-24T09:29:04;10.80;1.00
9925;DHT22;5001;51.674;7.868;2023-04-24T09:31:31;10.50;1.00
9925;DHT22;5001;51.674;7.868;2023-04-24T09:34:02;10.50;1.00
9925;DHT22;5001;51.674;7.868;2023-04-24T09:36:39;10.30;1.00
9925;DHT22;5001;51.674;7.868;2023-04-24T09:39:09;10.60;1.00
9925;DHT22;5001;51.674;7.868;2023-04-24T09:41:49;10.30;1.00
9925;DHT22;5001;51.674;7.868;2023-04-24T09:44:19;10.20;1.00
9925;DHT22;5001;51.674;7.868;2023-04-24T09:46:57;10.00;1.00
9925;DHT22;5001;51.674;7.868;2023-04-24T09:49:26;10.00;1.00
9925;DHT22;5001;51.674;7.868;2023-04-24T09:52:04;9.90;1.00
9925;DHT22;5001;51.674;7.868;2023-04-24T09:54:31;10.20;1.00
9925;DHT22;5001;51.674;7.868;2023-04-24T09:56:58;10.00;1.00
9925;DHT22;5001;51.674;7.868;2023-04-24T09:59:27;9.70;1.00
9925;DHT22;5001;51.674;7.868;2023-04-24T10:01:54;9.80;1.00
9925;DHT22;5001;51.674;7.868;2023-04-24T10:04:24;10.10;1.00
9925;DHT22;5001;51.674;7.868;2023-04-24T10:06:52;9.90;1.00
9925;DHT22;5001;51.674;7.868;2023-04-24T10:09:22;10.00;1.00
9925;DHT22;5001;51.674;7.868;2023-04-24T10:11:51;10.00;1.00
9925;DHT22;5001;51.674;7.868;2023-04-24T10:14:20;10.20;1.00
9925;DHT22;5001;51.674;7.868;2023-04-24T10:16:48;10.00;1.00
9925;DHT22;5001;51.674;7.868;2023-04-24T10:19:16;10.10;1.00
9925;DHT22;5001;51.674;7.868;2023-04-24T10:21:45;10.30;1.00
9925;DHT22;5001;51.674;7.868;2023-04-24T10:24:17;10.30;1.00
9925;DHT22;5001;51.674;7.868;2023-04-24T10:26:45;10.80;1.00
9925;DHT22;5001;51.674;7.868;2023-04-24T10:29:13;10.90;1.00
9925;DHT22;5001;51.674;7.868;2023-04-24T10:31:42;10.70;1.00
9925;DHT22;5001;51.674;7.868;2023-04-24T10:34:13;11.10;1.00
9925;DHT22;5001;51.674;7.868;2023-04-24T10:36:54;11.40;1.00
9925;DHT22;5001;51.674;7.868;2023-04-24T10:39:24;11.70;1.00
9925;DHT22;5001;51.674;7.868;2023-04-24T10:41:54;12.30;1.00
9925;DHT22;5001;51.674;7.868;2023-04-24T10:44:24;12.20;1.00
9925;DHT22;5001;51.674;7.868;2023-04-24T10:46:55;12.60;1.00
9925;DHT22;5001;51.674;7.868;2023-04-24T10:49:30;12.10;1.00
9925;DHT22;5001;51.674;7.868;2023-04-24T10:52:02;12.00;1.00
9925;DHT22;5001;51.674;7.868;2023-04-24T10:54:44;11.80;1.00
9925;DHT22;5001;51.674;7.868;2023-04-24T10:59:50;11.00;1.00
9925;DHT22;5001;51.674;7.868;2023-04-24T11:02:18;11.50;1.00
9925;DHT22;5001;51.674;7.868;2023-04-24T11:05:05;11.90;1.00
9925;DHT22;5001;51.674;7.868;2023-04-24T11:08:11;12.50;1.00
9925;DHT22;5001;51.674;7.868;2023-04-24T11:10:44;12.90;1.00
9925;DHT22;5001;51.674;7.868;2023-04-24T11:13:21;12.80;1.00
9925;DHT22;5001;51.674;7.868;2023-04-24T11:16:14;13.00;1.00
9925;DHT22;5001;51.674;7.868;2023-04-24T11:18:43;12.50;1.00
9925;DHT22;5001;51.674;7.868;2023-04-24T11:21:12;12.30;1.00
9925;DHT22;5001;51.674;7.868;2023-04-24T11:23:40;12.50;1.00
9925;DHT22;5001;51.674;7.868;2023-04-24T11:26:18;12.70;1.00
9925;DHT22;5001;51.674;7.868;2023-04-24T11:28:47;12.90;1.00
9925;DHT22;5001;51.674;7.868;2023-04-24T11:31:37;13.00;1.00
9925;DHT22;5001;51.674;7.868;2023-04-24T11:34:14;13.00;1.00
9925;DHT22;5001;51.674;7.868;2023-04-24T11:36:45;12.70;1.00
9925;DHT22;5001;51.674;7.868;2023-04-24T11:39:14;12.70;1.00
9925;DHT22;5001;51.674;7.868;2023-04-24T11:41:41;12.70;1.00
9925;DHT22;5001;51.674;7.868;2023-04-24T11:44:09;12.50;1.00
9925;DHT22;5001;51.674;7.868;2023-04-24T11:46:38;11.60;1.00
9925;DHT22;5001;51.674;7.868;2023-04-24T11:49:07;11.90;1.00
9925;DHT22;5001;51.674;7.868;2023-04-24T11:51:34;11.50;1.00
9925;DHT22;5001;51.674;7.868;2023-04-24T11:54:16;12.10;1.00
9925;DHT22;5001;51.674;7.868;2023-04-24T11:56:46;12.20;1.00
9925;DHT22;5001;51.674;7.868;2023-04-24T11:59:14;12.80;1.00
9925;DHT22;5001;51.674;7.868;2023-04-24T12:01:48;12.90;1.00
9925;DHT22;5001;51.674;7.868;2023-04-24T12:04:17;12.80;1.00
9925;DHT22;5001;51.674;7.868;2023-04-24T12:07:04;12.70;1.00
9925;DHT22;5001;51.674;7.868;2023-04-24T12:12:15;12.90;1.00
9925;DHT22;5001;51.674;7.868;2023-04-24T12:14:50;13.30;1.00
9925;DHT22;5001;51.674;7.868;2023-04-24T12:17:27;13.40;1.00
9925;DHT22;5001;51.674;7.868;2023-04-24T12:20:06;13.40;1.00
9925;DHT22;5001;51.674;7.868;2023-04-24T12:22:53;13.60;1.00
9925;DHT22;5001;51.674;7.868;2023-04-24T12:25:25;13.90;1.00
9925;DHT22;5001;51.674;7.868;2023-04-24T12:28:10;13.20;1.00
9925;DHT22;5001;51.674;7.868;2023-04-24T12:30:41;13.30;1.00
9925;DHT22;5001;51.674;7.868;2023-04-24T12:33:11;13.10;1.00
9925;DHT22;5001;51.674;7.868;2023-04-24T12:35:40;13.40;1.00
9925;DHT22;5001;51.674;7.868;2023-04-24T12:38:12;13.80;1.00
9925;DHT22;5001;51.674;7.868;2023-04-24T12:40:41;13.50;1.00
9925;DHT22;5001;51.674;7.868;2023-04-24T12:43:16;13.20;1.00
9925;DHT22;5001;51.674;7.868;2023-04-24T12:45:43;13.30;1.00
9925;DHT22;5001;51.674;7.868;2023-04-24T12:48:12;13.50;1.00
9925;DHT22;5001;51.674;7.868;2023-04-24T12:50:42;13.50;1.00
9925;DHT22;5001;51.674;7.868;2023-04-24T12:53:12;13.40;1.00
9925;DHT22;5001;51.674;7.868;2023-04-24T12:55:40;13.20;1.00
9925;DHT22;5001;51.674;7.868;2023-04-24T12:58:07;12.30;1.00
9925;DHT22;5001;51.674;7.868;2023-04-24T13:00:34;12.50;1.00
9925;DHT22;5001;51.674;7.868;2023-04-24T13:03:01;12.40;1.00
9925;DHT22;5001;51.674;7.868;2023-04-24T13:05:29;12.20;1.00
9925;DHT22;5001;51.674;7.868;2023-04-24T13:07:57;12.00;1.00
9925;DHT22;5001;51.674;7.868;2023-04-24T13:10:24;12.80;1.00
9925;DHT22;5001;51.674;7.868;2023-04-24T13:12:52;13.60;1.00
9925;DHT22;5001;51.674;7.868;2023-04-24T13:15:20;13.20;1.00
9925;DHT22;5001;51.674;7.868;2023-04-24T13:17:46;12.90;1.00
9925;DHT22;5001;51.674;7.868;2023-04-24T13:20:14;12.70;1.00
9925;DHT22;5001;51.674;7.868;2023-04-24T13:22:41;11.60;1.00
9925;DHT22;5001;51.674;7.868;2023-04-24T13:25:08;11.80;1.00
9925;DHT22;5001;51.674;7.868;2023-04-24T13:27:38;11.80;1.00
9925;DHT22;5001;51.674;7.868;2023-04-24T13:30:05;12.20;1.00
9925;DHT22;5001;51.674;7.868;2023-04-24T13:32:33;12.80;1.00
9925;DHT22;5001;51.674;7.868;2023-04-24T13:35:02;12.90;1.00
9925;DHT22;5001;51.674;7.868;2023-04-24T13:37:29;13.00;1.00
9925;DHT22;5001;51.674;7.868;2023-04-24T13:39:56;12.50;1.00
9925;DHT22;5001;51.674;7.868;2023-04-24T13:42:23;12.70;1.00
9925;DHT22;5001;51.674;7.868;2023-04-24T13:44:51;12.50;1.00
9925;DHT22;5001;51.674;7.868;2023-04-24T13:47:19;12.30;1.00
9925;DHT22;5001;51.674;7.868;2023-04-24T13:49:45;12.80;1.00
9925;DHT22;5001;51.674;7.868;2023-04-24T13:52:12;13.10;1.00
9925;DHT22;5001;51.674;7.868;2023-04-24T13:54:40;12.90;1.00
9925;DHT22;5001;51.674;7.868;2023-04-24T13:57:07;13.10;1.00
9925;DHT22;5001;51.674;7.868;2023-04-24T13:59:34;13.10;1.00
9925;DHT22;5001;51.674;7.868;2023-04-24T14:02:01;13.50;1.00
9925;DHT22;5001;51.674;7.868;2023-04-24T14:04:28;13.30;1.00
9925;DHT22;5001;51.674;7.868;2023-04-24T14:06:55;13.20;1.00
9925;DHT22;5001;51.674;7.868;2023-04-24T14:09:23;13.20;1.00
9925;DHT22;5001;51.674;7.868;2023-04-24T14:11:51;13.20;1.00
9925;DHT22;5001;51.674;7.868;2023-04-24T14:14:18;13.20;1.00
9925;DHT22;5001;51.674;7.868;2023-04-24T14:16:45;12.80;1.00
9925;DHT22;5001;51.674;7.868;2023-04-24T14:19:12;12.50;1.00
9925;DHT22;5001;51.674;7.868;2023-04-24T14:21:39;12.50;1.00
9925;DHT22;5001;51.674;7.868;2023-04-24T14:24:07;12.70;1.00
9925;DHT22;5001;51.674;7.868;2023-04-24T14:26:34;12.30;1.00
9925;DHT22;5001;51.674;7.868;2023-04-24T14:29:02;12.40;1.00
9925;DHT22;5001;51.674;7.868;2023-04-24T14:31:41;12.40;1.00
9925;DHT22;5001;51.674;7.868;2023-04-24T14:34:09;12.80;1.00
9925;DHT22;5001;51.674;7.868;2023-04-24T14:36:36;13.40;1.00
9925;DHT22;5001;51.674;7.868;2023-04-24T14:39:03;13.60;1.00
9925;DHT22;5001;51.674;7.868;2023-04-24T14:41:33;13.90;1.00
9925;DHT22;5001;51.674;7.868;2023-04-24T14:44:05;13.90;1.00
9925;DHT22;5001;51.674;7.868;2023-04-24T14:46:33;13.30;1.00
9925;DHT22;5001;51.674;7.868;2023-04-24T14:49:00;13.70;1.00
9925;DHT22;5001;51.674;7.868;2023-04-24T14:51:27;13.90;1.00
9925;DHT22;5001;51.674;7.868;2023-04-24T14:53:54;14.00;1.00
9925;DHT22;5001;51.674;7.868;2023-04-24T14:56:23;14.10;1.00
9925;DHT22;5001;51.674;7.868;2023-04-24T14:58:50;13.80;1.00
9925;DHT22;5001;51.674;7.868;2023-04-24T15:01:17;13.80;1.00
9925;DHT22;5001;51.674;7.868;2023-04-24T15:03:45;13.00;1.00
9925;DHT22;5001;51.674;7.868;2023-04-24T15:06:13;12.70;1.00
9925;DHT22;5001;51.674;7.868;2023-04-24T15:08:40;12.70;1.00
9925;DHT22;5001;51.674;7.868;2023-04-24T15:11:07;12.80;1.00
9925;DHT22;5001;51.674;7.868;2023-04-24T15:13:34;13.30;1.00
9925;DHT22;5001;51.674;7.868;2023-04-24T15:16:01;13.60;1.00
9925;DHT22;5001;51.674;7.868;2023-04-24T15:18:29;13.90;1.00
9925;DHT22;5001;51.674;7.868;2023-04-24T15:20:56;14.00;1.00
9925;DHT22;5001;51.674;7.868;2023-04-24T15:23:23;13.90;1.00
9925;DHT22;5001;51.674;7.868;2023-04-24T15:25:50;13.90;1.00
9925;DHT22;5001;51.674;7.868;2023-04-24T15:28:17;13.60;1.00
9925;DHT22;5001;51.674;7.868;2023-04-24T15:30:44;13.30;1.00
9925;DHT22;5001;51.674;7.868;2023-04-24T15:33:11;13.50;1.00
9925;DHT22;5001;51.674;7.868;2023-04-24T15:35:39;13.10;1.00
9925;DHT22;5001;51.674;7.868;2023-04-24T15:38:07;13.30;1.00
9925;DHT22;5001;51.674;7.868;2023-04-24T15:40:34;13.20;1.00
9925;DHT22;5001;51.674;7.868;2023-04-24T15:43:01;12.50;1.00
9925;DHT22;5001;51.674;7.868;2023-04-24T15:45:28;12.50;1.00
9925;DHT22;5001;51.674;7.868;2023-04-24T15:47:56;12.60;1.00
9925;DHT22;5001;51.674;7.868;2023-04-24T15:50:23;12.30;1.00
9925;DHT22;5001;51.674;7.868;2023-04-24T15:52:51;12.50;1.00
9925;DHT22;5001;51.674;7.868;2023-04-24T15:55:18;13.20;1.00
9925;DHT22;5001;51.674;7.868;2023-04-24T15:57:45;13.10;1.00
9925;DHT22;5001;51.674;7.868;2023-04-24T16:00:12;11.90;1.00
9925;DHT22;5001;51.674;7.868;2023-04-24T16:02:39;12.40;1.00
9925;DHT22;5001;51.674;7.868;2023-04-24T16:05:07;12.80;1.00
9925;DHT22;5001;51.674;7.868;2023-04-24T16:07:34;12.90;1.00
9925;DHT22;5001;51.674;7.868;2023-04-24T16:10:01;12.80;1.00
9925;DHT22;5001;51.674;7.868;2023-04-24T16:12:29;12.90;1.00
9925;DHT22;5001;51.674;7.868;2023-04-24T16:14:56;12.80;1.00
9925;DHT22;5001;51.674;7.868;2023-04-24T16:17:23;12.30;1.00
9925;DHT22;5001;51.674;7.868;2023-04-24T16:19:50;12.40;1.00
9925;DHT22;5001;51.674;7.868;2023-04-24T16:22:17;12.40;1.00
9925;DHT22;5001;51.674;7.868;2023-04-24T16:24:44;12.90;1.00
9925;DHT22;5001;51.674;7.868;2023-04-24T16:27:14;12.90;1.00
9925;DHT22;5001;51.674;7.868;2023-04-24T16:29:41;13.10;1.00
9925;DHT22;5001;51.674;7.868;2023-04-24T16:32:09;13.20;1.00
9925;DHT22;5001;51.674;7.868;2023-04-24T16:34:36;12.90;1.00